Time,TemperatureF,DewpointF,PressureIn,WindDirection,WindDirectionDegrees,WindSpeedMPH,WindSpeedGustMPH,Humidity,HourlyPrecipIn,Conditions,Clouds,dailyrainin,SoftwareType,DateUTC
2013-03-16 00:11:00,30.2,24.0,29.77,NNW,332,7.0,15.0,76,0.00,,,0.00,weatherlink.com 1.10,2013-03-16 04:11:00,
2013-03-16 00:41:00,29.9,22.0,29.77,North,355,6.0,21.0,72,0.00,,,0.00,weatherlink.com 1.10,2013-03-16 04:41:00,
2013-03-16 00:56:00,29.7,21.0,29.78,North,360,11.0,20.0,71,0.00,,,0.00,weatherlink.com 1.10,2013-03-16 04:56:00,
2013-03-16 01:11:00,29.5,22.0,29.77,NNE,27,8.0,21.0,72,0.00,,,0.00,weatherlink.com 1.10,2013-03-16 05:11:00,
2013-03-16 01:26:00,29.2,21.0,29.78,NNE,17,14.0,16.0,72,0.00,,,0.00,weatherlink.com 1.10,2013-03-16 05:26:00,
2013-03-16 01:42:00,29.0,21.0,29.78,NNW,336,8.0,16.0,72,0.00,,,0.00,weatherlink.com 1.10,2013-03-16 05:42:00,
2013-03-16 01:57:00,28.5,20.0,29.77,NNW,328,7.0,14.0,71,0.00,,,0.00,weatherlink.com 1.10,2013-03-16 05:57:00,
2013-03-16 02:12:00,28.2,21.0,29.77,North,360,8.0,14.0,73,0.00,,,0.00,weatherlink.com 1.10,2013-03-16 06:12:00,
2013-03-16 02:27:00,27.4,21.0,29.77,North,355,8.0,11.0,76,0.00,,,0.00,weatherlink.com 1.10,2013-03-16 06:27:00,
2013-03-16 02:42:00,27.4,21.0,29.77,NNW,344,7.0,12.0,76,0.00,,,0.00,weatherlink.com 1.10,2013-03-16 06:42:00,
2013-03-16 02:57:00,27.2,21.0,29.78,North,360,8.0,10.0,77,0.00,,,0.00,weatherlink.com 1.10,2013-03-16 06:57:00,
2013-03-16 03:12:00,27.1,21.0,29.77,North,355,7.0,12.0,77,0.00,,,0.00,weatherlink.com 1.10,2013-03-16 07:12:00,
2013-03-16 03:27:00,27.0,21.0,29.77,NNW,338,4.0,9.0,77,0.00,,,0.00,weatherlink.com 1.10,2013-03-16 07:27:00,
2013-03-16 03:42:00,27.2,21.0,29.77,North,350,4.0,10.0,77,0.00,,,0.00,weatherlink.com 1.10,2013-03-16 07:42:00,
2013-03-16 03:57:00,26.8,21.0,29.76,North,355,5.0,9.0,79,0.00,,,0.00,weatherlink.com 1.10,2013-03-16 07:57:00,
2013-03-16 04:12:00,26.6,21.0,29.75,NNE,27,5.0,7.0,80,0.00,,,0.00,weatherlink.com 1.10,2013-03-16 08:12:00,
2013-03-16 04:27:00,26.6,21.0,29.75,NNE,13,8.0,10.0,78,0.00,,,0.00,weatherlink.com 1.10,2013-03-16 08:27:00,
2013-03-16 04:42:00,26.3,18.0,29.74,NNE,32,5.0,8.0,72,0.00,,,0.00,weatherlink.com 1.10,2013-03-16 08:42:00,
2013-03-16 04:57:00,25.9,18.0,29.74,ENE,64,6.0,8.0,72,0.00,,,0.00,weatherlink.com 1.10,2013-03-16 08:57:00,
2013-03-16 05:12:00,25.6,17.0,29.75,NE,36,1.0,7.0,70,0.00,,,0.00,weatherlink.com 1.10,2013-03-16 09:12:00,
2013-03-16 05:27:00,25.5,17.0,29.75,NE,40,4.0,7.0,69,0.00,,,0.00,weatherlink.com 1.10,2013-03-16 09:27:00,
2013-03-16 05:42:00,25.4,17.0,29.74,NNE,30,2.0,6.0,70,0.00,,,0.00,weatherlink.com 1.10,2013-03-16 09:42:00,
2013-03-16 05:57:00,25.1,17.0,29.75,ENE,69,2.0,7.0,71,0.00,,,0.00,weatherlink.com 1.10,2013-03-16 09:57:00,
2013-03-16 06:12:00,25.1,17.0,29.75,NE,52,2.0,6.0,72,0.00,,,0.00,weatherlink.com 1.10,2013-03-16 10:12:00,
2013-03-16 06:27:00,25.1,18.0,29.76,NE,36,2.0,6.0,73,0.00,,,0.00,weatherlink.com 1.10,2013-03-16 10:27:00,
2013-03-16 06:42:00,25.2,18.0,29.76,NNE,26,5.0,5.0,73,0.00,,,0.00,weatherlink.com 1.10,2013-03-16 10:42:00,
2013-03-16 06:57:00,25.2,18.0,29.77,NNE,26,2.0,5.0,74,0.00,,,0.00,weatherlink.com 1.10,2013-03-16 10:57:00,
2013-03-16 07:12:00,25.2,18.0,29.77,NE,39,3.0,5.0,74,0.00,,,0.00,weatherlink.com 1.10,2013-03-16 11:12:00,
2013-03-16 07:27:00,25.2,18.0,29.77,NE,53,1.0,6.0,75,0.00,,,0.00,weatherlink.com 1.10,2013-03-16 11:27:00,
2013-03-16 07:42:00,25.1,17.0,29.76,ENE,77,0.0,7.0,72,0.00,,,0.00,weatherlink.com 1.10,2013-03-16 11:42:00,
2013-03-16 07:57:00,25.2,17.0,29.76,NE,42,5.0,6.0,71,0.00,,,0.00,weatherlink.com 1.10,2013-03-16 11:57:00,
2013-03-16 08:12:00,25.2,17.0,29.77,East,84,4.0,6.0,71,0.00,,,0.00,weatherlink.com 1.10,2013-03-16 12:12:00,
2013-03-16 08:27:00,25.2,17.0,29.77,ESE,117,0.0,5.0,71,0.00,,,0.00,weatherlink.com 1.10,2013-03-16 12:27:00,
2013-03-16 08:42:00,25.2,18.0,29.77,ESE,115,5.0,5.0,74,0.00,,,0.00,weatherlink.com 1.10,2013-03-16 12:42:00,
2013-03-16 08:57:00,25.2,20.0,29.77,ESE,117,2.0,4.0,79,0.00,,,0.00,weatherlink.com 1.10,2013-03-16 12:57:00,
2013-03-16 09:12:00,25.6,20.0,29.77,ESE,104,3.0,6.0,79,0.00,,,0.00,weatherlink.com 1.10,2013-03-16 13:12:00,
2013-03-16 09:27:00,25.6,20.0,29.77,SE,145,2.0,6.0,80,0.00,,,0.00,weatherlink.com 1.10,2013-03-16 13:27:00,
2013-03-16 09:42:00,26.4,20.0,29.76,ESE,122,2.0,5.0,78,0.00,,,0.00,weatherlink.com 1.10,2013-03-16 13:42:00,
2013-03-16 09:57:00,26.9,20.0,29.76,South,169,0.0,2.0,76,0.00,,,0.00,weatherlink.com 1.10,2013-03-16 13:57:00,
2013-03-16 10:12:00,27.5,21.0,29.76,SSW,206,1.0,5.0,77,0.00,,,0.00,weatherlink.com 1.10,2013-03-16 14:12:00,
2013-03-16 10:27:00,26.8,20.0,29.76,SSE,154,1.0,2.0,75,0.00,,,0.00,weatherlink.com 1.10,2013-03-16 14:27:00,
2013-03-16 10:42:00,28.5,21.0,29.74,WSW,240,1.0,5.0,72,0.00,,,0.00,weatherlink.com 1.10,2013-03-16 14:42:00,
2013-03-16 10:57:00,27.4,20.0,29.75,NW,310,5.0,6.0,73,0.00,,,0.00,weatherlink.com 1.10,2013-03-16 14:57:00,
2013-03-16 11:12:00,27.4,20.0,29.75,WSW,246,4.0,6.0,74,0.00,,,0.00,weatherlink.com 1.10,2013-03-16 15:12:00,
2013-03-16 11:27:00,27.1,20.0,29.74,SW,235,0.0,7.0,73,0.00,,,0.00,weatherlink.com 1.10,2013-03-16 15:27:00,
2013-03-16 11:42:00,27.2,20.0,29.75,NNE,15,6.0,6.0,75,0.00,,,0.00,weatherlink.com 1.10,2013-03-16 15:42:00,
2013-03-16 11:57:00,28.0,20.0,29.74,NNW,331,4.0,6.0,73,0.00,,,0.00,weatherlink.com 1.10,2013-03-16 15:57:00,
2013-03-16 12:12:00,27.5,20.0,29.74,NE,34,2.0,5.0,73,0.00,,,0.00,weatherlink.com 1.10,2013-03-16 16:12:00,
2013-03-16 12:42:00,26.9,20.0,29.76,NNE,17,5.0,8.0,75,0.00,,,0.00,weatherlink.com 1.10,2013-03-16 16:42:00,
2013-03-16 12:57:00,27.0,20.0,29.75,NNE,22,6.0,7.0,74,0.00,,,0.00,weatherlink.com 1.10,2013-03-16 16:57:00,
2013-03-16 13:12:00,27.5,20.0,29.75,North,5,2.0,6.0,72,0.00,,,0.00,weatherlink.com 1.10,2013-03-16 17:12:00,
2013-03-16 13:27:00,27.1,20.0,29.74,NNE,20,5.0,8.0,73,0.00,,,0.00,weatherlink.com 1.10,2013-03-16 17:27:00,
2013-03-16 13:42:00,27.8,20.0,29.73,NE,39,1.0,6.0,71,0.00,,,0.00,weatherlink.com 1.10,2013-03-16 17:42:00,
2013-03-16 13:57:00,27.6,19.0,29.73,North,5,6.0,8.0,71,0.00,,,0.00,weatherlink.com 1.10,2013-03-16 17:57:00,
2013-03-16 14:12:00,27.9,19.0,29.73,NNE,27,5.0,7.0,70,0.00,,,0.00,weatherlink.com 1.10,2013-03-16 18:12:00,
2013-03-16 14:27:00,28.3,20.0,29.73,North,5,6.0,9.0,70,0.00,,,0.00,weatherlink.com 1.10,2013-03-16 18:27:00,
2013-03-16 14:42:00,27.6,20.0,29.73,NNE,24,5.0,9.0,72,0.00,,,0.00,weatherlink.com 1.10,2013-03-16 18:42:00,
2013-03-16 14:57:00,27.5,20.0,29.73,East,90,5.0,9.0,72,0.00,,,0.00,weatherlink.com 1.10,2013-03-16 18:57:00,
2013-03-16 15:12:00,27.4,19.0,29.73,NE,34,5.0,10.0,72,0.00,,,0.00,weatherlink.com 1.10,2013-03-16 19:12:00,
2013-03-16 15:42:00,27.5,20.0,29.73,NNE,28,6.0,9.0,73,0.00,,,0.00,weatherlink.com 1.10,2013-03-16 19:42:00,
2013-03-16 15:57:00,27.6,20.0,29.72,NE,34,7.0,9.0,73,0.00,,,0.00,weatherlink.com 1.10,2013-03-16 19:57:00,
2013-03-16 16:12:00,27.1,19.0,29.73,NE,39,6.0,10.0,72,0.00,,,0.00,weatherlink.com 1.10,2013-03-16 20:12:00,
2013-03-16 16:27:00,27.2,20.0,29.73,NE,49,6.0,8.0,75,0.00,,,0.00,weatherlink.com 1.10,2013-03-16 20:27:00,
2013-03-16 16:42:00,27.2,21.0,29.73,ENE,70,3.0,7.0,76,0.00,,,0.00,weatherlink.com 1.10,2013-03-16 20:42:00,
2013-03-16 16:57:00,26.6,21.0,29.74,NE,40,8.0,10.0,78,0.00,,,0.00,weatherlink.com 1.10,2013-03-16 20:57:00,
2013-03-16 17:12:00,26.3,21.0,29.75,NNE,33,7.0,9.0,80,0.00,,,0.00,weatherlink.com 1.10,2013-03-16 21:12:00,
2013-03-16 17:27:00,26.2,21.0,29.75,NNE,26,6.0,9.0,82,0.00,,,0.00,weatherlink.com 1.10,2013-03-16 21:27:00,
2013-03-16 17:42:00,25.7,21.0,29.76,NNE,30,8.0,10.0,82,0.00,,,0.00,weatherlink.com 1.10,2013-03-16 21:42:00,
2013-03-16 17:57:00,25.4,21.0,29.76,NNE,20,6.0,10.0,82,0.00,,,0.00,weatherlink.com 1.10,2013-03-16 21:57:00,
2013-03-16 18:12:00,25.4,20.0,29.77,NNE,33,6.0,8.0,81,0.00,,,0.00,weatherlink.com 1.10,2013-03-16 22:12:00,
2013-03-16 18:28:00,25.4,20.0,29.77,NNE,29,5.0,8.0,81,0.00,,,0.00,weatherlink.com 1.10,2013-03-16 22:28:00,
2013-03-16 18:43:00,25.2,20.0,29.78,NE,40,7.0,10.0,81,0.00,,,0.00,weatherlink.com 1.10,2013-03-16 22:43:00,
2013-03-16 18:58:00,24.9,20.0,29.79,NE,38,9.0,10.0,81,0.00,,,0.00,weatherlink.com 1.10,2013-03-16 22:58:00,
2013-03-16 19:13:00,24.6,20.0,29.79,NNE,17,8.0,11.0,82,0.00,,,0.00,weatherlink.com 1.10,2013-03-16 23:13:00,
2013-03-16 19:28:00,24.3,20.0,29.80,ENE,66,7.0,10.0,84,0.00,,,0.00,weatherlink.com 1.10,2013-03-16 23:28:00,
2013-03-16 19:43:00,24.2,20.0,29.81,NNE,20,7.0,11.0,85,0.00,,,0.00,weatherlink.com 1.10,2013-03-16 23:43:00,
2013-03-16 19:58:00,23.8,20.0,29.81,NNE,17,8.0,11.0,84,0.00,,,0.00,weatherlink.com 1.10,2013-03-16 23:58:00,
2013-03-16 20:13:00,23.1,19.0,29.82,NNE,24,4.0,9.0,85,0.00,,,0.00,weatherlink.com 1.10,2013-03-17 00:13:00,
2013-03-16 20:28:00,22.9,19.0,29.83,NNE,26,5.0,8.0,84,0.00,,,0.00,weatherlink.com 1.10,2013-03-17 00:28:00,
2013-03-16 20:43:00,23.0,19.0,29.84,North,360,4.0,8.0,84,0.00,,,0.00,weatherlink.com 1.10,2013-03-17 00:43:00,
2013-03-16 20:58:00,23.3,19.0,29.84,NNE,26,6.0,9.0,83,0.00,,,0.00,weatherlink.com 1.10,2013-03-17 00:58:00,
2013-03-16 21:13:00,23.0,18.0,29.84,NNE,14,5.0,7.0,81,0.00,,,0.00,weatherlink.com 1.10,2013-03-17 01:13:00,
2013-03-16 21:28:00,22.4,18.0,29.86,North,5,5.0,8.0,82,0.00,,,0.00,weatherlink.com 1.10,2013-03-17 01:28:00,
2013-03-16 21:43:00,21.9,17.0,29.86,NNE,29,2.0,7.0,81,0.00,,,0.00,weatherlink.com 1.10,2013-03-17 01:43:00,
2013-03-16 21:58:00,21.2,17.0,29.87,NNE,25,4.0,5.0,83,0.00,,,0.00,weatherlink.com 1.10,2013-03-17 01:58:00,
2013-03-16 22:13:00,21.0,17.0,29.87,NNE,30,2.0,5.0,84,0.00,,,0.00,weatherlink.com 1.10,2013-03-17 02:13:00,
2013-03-16 22:28:00,20.6,17.0,29.87,NNE,29,4.0,6.0,84,0.00,,,0.00,weatherlink.com 1.10,2013-03-17 02:28:00,
2013-03-16 22:43:00,20.5,16.0,29.87,NNE,29,5.0,5.0,83,0.00,,,0.00,weatherlink.com 1.10,2013-03-17 02:43:00,
2013-03-16 22:58:00,20.2,16.0,29.88,NNE,28,0.0,3.0,84,0.00,,,0.00,weatherlink.com 1.10,2013-03-17 02:58:00,
2013-03-16 23:13:00,19.8,15.0,29.88,NNE,28,0.0,1.0,83,0.00,,,0.00,weatherlink.com 1.10,2013-03-17 03:13:00,
2013-03-16 23:28:00,19.7,16.0,29.88,NNE,28,1.0,1.0,84,0.00,,,0.00,weatherlink.com 1.10,2013-03-17 03:28:00,
2013-03-16 23:43:00,19.6,16.0,29.88,NNE,28,0.0,2.0,84,0.00,,,0.00,weatherlink.com 1.10,2013-03-17 03:43:00,
2013-03-16 23:58:00,19.2,15.0,29.88,NNE,28,0.0,1.0,83,0.00,,,0.00,weatherlink.com 1.10,2013-03-17 03:58:00,